Terminal Aerodrome Forecast
Issued by NWS

Home | Current Version | Previous Version | Text Only | Print | Product List | Glossary On
Versions: 1 2 3 4 5 6 7 8 9 10 11 12 13 14
000
FTUS44 KLZK 050500
TAFHRO
TAF
KHRO 050522Z 0506/0606 16005KT P6SM SKC
     FM051400 16010G18KT P6SM SCT250
     FM051800 16012G22KT P6SM SCT060 SCT250
     FM060100 15008KT P6SM SCT250=

USA.gov is the U.S. government's official web portal to all federal, state and local government web resources and services.